sensor_id;sensor_type;location;lat;lon;timestamp;pressure;altitude;pressure_sealevel;temperature;humidity
76124;BME280;65173;48.066;20.976;2023-04-03T00:02:17;100292.34;;;5.81;75.67
76124;BME280;65173;48.066;20.976;2023-04-03T00:05:37;100292.09;;;5.77;75.53
76124;BME280;65173;48.066;20.976;2023-04-03T00:08:57;100296.81;;;5.85;75.13
76124;BME280;65173;48.066;20.976;2023-04-03T00:12:17;100296.56;;;5.82;75.65
76124;BME280;65173;48.066;20.976;2023-04-03T00:15:38;100292.06;;;5.82;75.17
76124;BME280;65173;48.066;20.976;2023-04-03T00:18:59;100292.34;;;5.81;75.37
76124;BME280;65173;48.066;20.976;2023-04-03T00:22:19;100295.31;;;5.74;74.50
76124;BME280;65173;48.066;20.976;2023-04-03T00:25:39;100295.63;;;5.73;75.21
76124;BME280;65173;48.066;20.976;2023-04-03T00:28:59;100293.53;;;5.70;76.07
76124;BME280;65173;48.066;20.976;2023-04-03T00:32:19;100304.66;;;5.67;75.26
76124;BME280;65173;48.066;20.976;2023-04-03T00:35:40;100299.69;;;5.60;76.20
76124;BME280;65173;48.066;20.976;2023-04-03T00:39:00;100307.72;;;5.50;76.50
76124;BME280;65173;48.066;20.976;2023-04-03T00:42:20;100304.56;;;5.48;75.49
76124;BME280;65173;48.066;20.976;2023-04-03T00:45:43;100315.16;;;5.43;75.82
76124;BME280;65173;48.066;20.976;2023-04-03T00:49:03;100309.19;;;5.32;75.98
76124;BME280;65173;48.066;20.976;2023-04-03T00:52:28;100308.16;;;5.28;76.52
76124;BME280;65173;48.066;20.976;2023-04-03T00:55:49;100309.88;;;5.14;76.81
76124;BME280;65173;48.066;20.976;2023-04-03T00:59:21;100324.69;;;5.10;77.11
76124;BME280;65173;48.066;20.976;2023-04-03T01:02:45;100321.88;;;4.96;77.77
76124;BME280;65173;48.066;20.976;2023-04-03T01:06:05;100329.56;;;4.93;77.64
76124;BME280;65173;48.066;20.976;2023-04-03T01:09:25;100326.34;;;5.01;78.75
76124;BME280;65173;48.066;20.976;2023-04-03T01:12:48;100336.44;;;4.88;77.80
76124;BME280;65173;48.066;20.976;2023-04-03T01:16:09;100335.09;;;4.91;78.97
76124;BME280;65173;48.066;20.976;2023-04-03T01:19:29;100339.13;;;4.83;78.54
76124;BME280;65173;48.066;20.976;2023-04-03T01:26:32;100339.75;;;4.65;80.50
76124;BME280;65173;48.066;20.976;2023-04-03T01:29:53;100341.00;;;4.73;81.29
76124;BME280;65173;48.066;20.976;2023-04-03T01:33:13;100349.72;;;4.73;81.08
76124;BME280;65173;48.066;20.976;2023-04-03T01:36:34;100339.59;;;4.41;81.64
76124;BME280;65173;48.066;20.976;2023-04-03T01:39:55;100346.50;;;4.27;82.79
76124;BME280;65173;48.066;20.976;2023-04-03T01:43:15;100344.09;;;4.31;82.80
76124;BME280;65173;48.066;20.976;2023-04-03T01:46:36;100343.81;;;4.37;82.66
76124;BME280;65173;48.066;20.976;2023-04-03T01:49:58;100350.44;;;4.30;82.87
76124;BME280;65173;48.066;20.976;2023-04-03T01:53:19;100351.03;;;3.96;82.85
76124;BME280;65173;48.066;20.976;2023-04-03T01:56:39;100344.75;;;3.77;82.82
76124;BME280;65173;48.066;20.976;2023-04-03T01:59:59;100352.16;;;3.70;82.62
76124;BME280;65173;48.066;20.976;2023-04-03T02:03:20;100346.63;;;3.71;82.57
76124;BME280;65173;48.066;20.976;2023-04-03T02:06:40;100348.72;;;3.74;82.04
76124;BME280;65173;48.066;20.976;2023-04-03T02:10:00;100344.50;;;3.63;82.58
76124;BME280;65173;48.066;20.976;2023-04-03T02:13:21;100343.19;;;3.66;82.53
76124;BME280;65173;48.066;20.976;2023-04-03T02:16:41;100341.88;;;3.68;82.61
76124;BME280;65173;48.066;20.976;2023-04-03T02:20:02;100344.50;;;3.73;82.79
76124;BME280;65173;48.066;20.976;2023-04-03T02:23:22;100348.69;;;3.84;82.16
76124;BME280;65173;48.066;20.976;2023-04-03T02:26:42;100348.97;;;3.78;82.64
76124;BME280;65173;48.066;20.976;2023-04-03T02:30:03;100352.66;;;3.77;83.45
76124;BME280;65173;48.066;20.976;2023-04-03T02:33:24;100347.13;;;3.78;83.72
76124;BME280;65173;48.066;20.976;2023-04-03T02:36:46;100350.28;;;3.91;83.61
76124;BME280;65173;48.066;20.976;2023-04-03T02:40:07;100348.41;;;4.01;82.90
76124;BME280;65173;48.066;20.976;2023-04-03T02:43:27;100352.09;;;4.00;83.91
76124;BME280;65173;48.066;20.976;2023-04-03T02:46:47;100363.97;;;3.98;83.58
76124;BME280;65173;48.066;20.976;2023-04-03T02:50:08;100354.72;;;3.95;84.04
76124;BME280;65173;48.066;20.976;2023-04-03T02:53:28;100358.44;;;3.94;83.38
76124;BME280;65173;48.066;20.976;2023-04-03T02:56:53;100355.78;;;3.94;83.17
76124;BME280;65173;48.066;20.976;2023-04-03T03:00:13;100354.22;;;3.98;83.00
76124;BME280;65173;48.066;20.976;2023-04-03T03:03:33;100358.69;;;4.08;82.85
76124;BME280;65173;48.066;20.976;2023-04-03T03:06:54;100361.84;;;4.10;82.58
76124;BME280;65173;48.066;20.976;2023-04-03T03:10:14;100363.44;;;4.11;82.38
76124;BME280;65173;48.066;20.976;2023-04-03T03:13:34;100365.28;;;4.05;83.30
76124;BME280;65173;48.066;20.976;2023-04-03T03:16:55;100364.50;;;3.95;83.05
76124;BME280;65173;48.066;20.976;2023-04-03T03:20:15;100370.59;;;3.90;83.24
76124;BME280;65173;48.066;20.976;2023-04-03T03:23:36;100376.38;;;3.87;83.75
76124;BME280;65173;48.066;20.976;2023-04-03T03:26:56;100366.63;;;3.82;83.96
76124;BME280;65173;48.066;20.976;2023-04-03T03:30:16;100374.00;;;3.80;83.43
76124;BME280;65173;48.066;20.976;2023-04-03T03:33:36;100367.41;;;3.83;83.67
76124;BME280;65173;48.066;20.976;2023-04-03T03:36:57;100365.84;;;3.82;83.46
76124;BME280;65173;48.066;20.976;2023-04-03T03:40:17;100371.38;;;3.91;83.21
76124;BME280;65173;48.066;20.976;2023-04-03T03:43:38;100375.59;;;3.92;83.28
76124;BME280;65173;48.066;20.976;2023-04-03T03:46:58;100365.31;;;3.85;83.48
76124;BME280;65173;48.066;20.976;2023-04-03T03:50:18;100367.41;;;3.78;83.10
76124;BME280;65173;48.066;20.976;2023-04-03T03:53:38;100359.53;;;3.73;83.28
76124;BME280;65173;48.066;20.976;2023-04-03T03:56:59;100373.50;;;3.73;83.16
76124;BME280;65173;48.066;20.976;2023-04-03T04:00:20;100376.66;;;3.60;83.39
76124;BME280;65173;48.066;20.976;2023-04-03T04:03:40;100375.88;;;3.55;84.41
76124;BME280;65173;48.066;20.976;2023-04-03T04:07:05;100377.69;;;3.59;83.41
76124;BME280;65173;48.066;20.976;2023-04-03T04:10:26;100379.03;;;3.62;82.92
76124;BME280;65173;48.066;20.976;2023-04-03T04:13:48;100391.66;;;3.60;83.22
76124;BME280;65173;48.066;20.976;2023-04-03T04:17:09;100385.09;;;3.57;83.47
76124;BME280;65173;48.066;20.976;2023-04-03T04:20:30;100389.06;;;3.55;83.50
76124;BME280;65173;48.066;20.976;2023-04-03T04:23:52;100382.19;;;3.48;83.34
76124;BME280;65173;48.066;20.976;2023-04-03T04:27:12;100388.78;;;3.46;83.81
76124;BME280;65173;48.066;20.976;2023-04-03T04:30:33;100404.34;;;3.53;83.70
76124;BME280;65173;48.066;20.976;2023-04-03T04:33:54;100395.66;;;3.57;82.24
76124;BME280;65173;48.066;20.976;2023-04-03T04:37:14;100406.97;;;3.63;82.82
76124;BME280;65173;48.066;20.976;2023-04-03T04:40:35;100415.41;;;3.70;82.03
76124;BME280;65173;48.066;20.976;2023-04-03T04:43:58;100417.78;;;3.66;81.84
76124;BME280;65173;48.066;20.976;2023-04-03T04:47:18;100427.00;;;3.64;81.66
76124;BME280;65173;48.066;20.976;2023-04-03T04:50:39;100423.84;;;3.67;81.22
76124;BME280;65173;48.066;20.976;2023-04-03T04:53:59;100427.53;;;3.81;82.03
76124;BME280;65173;48.066;20.976;2023-04-03T04:57:22;100424.38;;;3.84;81.14
76124;BME280;65173;48.066;20.976;2023-04-03T05:05:39;100436.22;;;3.81;80.89
76124;BME280;65173;48.066;20.976;2023-04-03T05:08:59;100449.94;;;3.99;80.63
76124;BME280;65173;48.066;20.976;2023-04-03T05:12:21;100446.72;;;4.42;79.72
76124;BME280;65173;48.066;20.976;2023-04-03T05:15:42;100445.19;;;5.01;76.14
76124;BME280;65173;48.066;20.976;2023-04-03T05:19:03;100447.75;;;5.60;74.39
76124;BME280;65173;48.066;20.976;2023-04-03T05:22:24;100450.47;;;5.84;71.96
76124;BME280;65173;48.066;20.976;2023-04-03T05:25:45;100449.97;;;6.16;71.15
76124;BME280;65173;48.066;20.976;2023-04-03T05:29:07;100439.22;;;6.60;68.95
76124;BME280;65173;48.066;20.976;2023-04-03T05:32:28;100446.63;;;6.34;69.59
76124;BME280;65173;48.066;20.976;2023-04-03T05:36:06;100457.13;;;7.11;68.06
76124;BME280;65173;48.066;20.976;2023-04-03T05:39:31;100451.63;;;7.63;68.28
76124;BME280;65173;48.066;20.976;2023-04-03T05:42:52;100457.25;;;8.08;66.60
76124;BME280;65173;48.066;20.976;2023-04-03T05:46:17;100440.13;;;8.33;63.65
76124;BME280;65173;48.066;20.976;2023-04-03T05:49:41;100446.28;;;7.82;65.90
76124;BME280;65173;48.066;20.976;2023-04-03T05:53:02;100453.97;;;8.30;64.10
76124;BME280;65173;48.066;20.976;2023-04-03T05:56:23;100443.13;;;8.26;62.98
76124;BME280;65173;48.066;20.976;2023-04-03T05:59:44;100451.53;;;8.61;62.93
76124;BME280;65173;48.066;20.976;2023-04-03T06:03:15;100447.84;;;8.76;62.16
76124;BME280;65173;48.066;20.976;2023-04-03T06:06:52;100456.09;;;8.88;63.50
76124;BME280;65173;48.066;20.976;2023-04-03T06:10:13;100451.56;;;8.15;62.13
76124;BME280;65173;48.066;20.976;2023-04-03T06:13:33;100455.03;;;8.15;63.01
76124;BME280;65173;48.066;20.976;2023-04-03T06:16:54;100464.63;;;8.98;61.28
76124;BME280;65173;48.066;20.976;2023-04-03T06:20:15;100465.97;;;9.23;61.29
76124;BME280;65173;48.066;20.976;2023-04-03T06:23:35;100462.81;;;9.57;58.19
76124;BME280;65173;48.066;20.976;2023-04-03T06:26:56;100462.34;;;9.55;57.56
76124;BME280;65173;48.066;20.976;2023-04-03T06:30:22;100455.78;;;9.39;57.30
76124;BME280;65173;48.066;20.976;2023-04-03T06:33:43;100478.19;;;9.60;55.67
76124;BME280;65173;48.066;20.976;2023-04-03T06:37:03;100480.91;;;10.36;56.51
76124;BME280;65173;48.066;20.976;2023-04-03T06:40:25;100490.50;;;10.46;52.13
76124;BME280;65173;48.066;20.976;2023-04-03T06:43:46;100482.13;;;10.30;52.24
76124;BME280;65173;48.066;20.976;2023-04-03T06:47:05;100479.06;;;10.45;50.19
76124;BME280;65173;48.066;20.976;2023-04-03T06:50:25;100492.53;;;10.18;50.41
76124;BME280;65173;48.066;20.976;2023-04-03T06:53:47;100493.19;;;10.46;50.33
76124;BME280;65173;48.066;20.976;2023-04-03T06:57:07;100473.78;;;11.02;48.85
76124;BME280;65173;48.066;20.976;2023-04-03T07:00:28;100485.94;;;10.37;50.54
76124;BME280;65173;48.066;20.976;2023-04-03T07:03:49;100479.53;;;10.38;51.15
76124;BME280;65173;48.066;20.976;2023-04-03T07:07:09;100490.63;;;10.40;50.82
76124;BME280;65173;48.066;20.976;2023-04-03T07:10:29;100500.03;;;10.69;49.94
76124;BME280;65173;48.066;20.976;2023-04-03T07:13:50;100497.88;;;11.54;49.65
76124;BME280;65173;48.066;20.976;2023-04-03T07:17:10;100515.00;;;10.25;50.52
76124;BME280;65173;48.066;20.976;2023-04-03T07:20:31;100521.16;;;10.12;49.64
76124;BME280;65173;48.066;20.976;2023-04-03T07:23:50;100528.88;;;10.36;50.20
76124;BME280;65173;48.066;20.976;2023-04-03T07:27:11;100521.31;;;8.53;52.80
76124;BME280;65173;48.066;20.976;2023-04-03T07:30:32;100530.53;;;7.72;56.18
76124;BME280;65173;48.066;20.976;2023-04-03T07:33:52;100531.75;;;7.98;57.86
76124;BME280;65173;48.066;20.976;2023-04-03T07:37:13;100531.97;;;8.01;57.63
76124;BME280;65173;48.066;20.976;2023-04-03T07:40:34;100532.47;;;8.04;55.09
76124;BME280;65173;48.066;20.976;2023-04-03T07:43:55;100542.81;;;7.86;57.94
76124;BME280;65173;48.066;20.976;2023-04-03T07:47:15;100554.69;;;8.08;54.72
76124;BME280;65173;48.066;20.976;2023-04-03T07:50:40;100543.38;;;7.83;56.13
76124;BME280;65173;48.066;20.976;2023-04-03T07:54:01;100548.19;;;7.81;55.20
76124;BME280;65173;48.066;20.976;2023-04-03T07:57:21;100548.47;;;8.50;54.92
76124;BME280;65173;48.066;20.976;2023-04-03T08:00:43;100545.53;;;8.79;51.92
76124;BME280;65173;48.066;20.976;2023-04-03T08:04:03;100544.81;;;9.55;50.64
76124;BME280;65173;48.066;20.976;2023-04-03T08:07:24;100538.41;;;10.99;48.57
76124;BME280;65173;48.066;20.976;2023-04-03T08:10:49;100544.75;;;11.29;47.19
76124;BME280;65173;48.066;20.976;2023-04-03T08:14:10;100540.13;;;12.03;49.27
76124;BME280;65173;48.066;20.976;2023-04-03T08:17:35;100545.00;;;12.36;43.38
76124;BME280;65173;48.066;20.976;2023-04-03T08:20:55;100540.84;;;12.94;44.52
76124;BME280;65173;48.066;20.976;2023-04-03T08:24:15;100538.59;;;13.04;41.73
76124;BME280;65173;48.066;20.976;2023-04-03T08:27:35;100542.66;;;11.82;45.21
76124;BME280;65173;48.066;20.976;2023-04-03T08:30:40;100553.00;;;10.17;46.16
76124;BME280;65173;48.066;20.976;2023-04-03T08:33:43;100553.78;;;9.59;47.72
76124;BME280;65173;48.066;20.976;2023-04-03T08:36:46;100553.84;;;10.79;44.96
76124;BME280;65173;48.066;20.976;2023-04-03T08:39:49;100548.34;;;11.98;45.05
76124;BME280;65173;48.066;20.976;2023-04-03T08:43:35;100553.38;;;10.24;47.55
76124;BME280;65173;48.066;20.976;2023-04-03T08:50:29;100546.28;;;11.87;46.03
76124;BME280;65173;48.066;20.976;2023-04-03T08:53:36;100556.22;;;12.67;43.54
76124;BME280;65173;48.066;20.976;2023-04-03T08:56:41;100549.56;;;12.82;40.79
76124;BME280;65173;48.066;20.976;2023-04-03T08:59:45;100548.47;;;12.10;42.40
76124;BME280;65173;48.066;20.976;2023-04-03T09:02:51;100544.22;;;13.11;41.47
76124;BME280;65173;48.066;20.976;2023-04-03T09:06:00;100537.97;;;13.37;39.91
76124;BME280;65173;48.066;20.976;2023-04-03T09:12:32;100548.25;;;14.30;37.98
76124;BME280;65173;48.066;20.976;2023-04-03T09:15:36;100546.19;;;12.94;38.69
76124;BME280;65173;48.066;20.976;2023-04-03T09:18:45;100563.88;;;12.77;43.77
76124;BME280;65173;48.066;20.976;2023-04-03T09:21:50;100553.75;;;12.92;41.86
76124;BME280;65173;48.066;20.976;2023-04-03T09:25:23;100545.88;;;12.95;39.05
76124;BME280;65173;48.066;20.976;2023-04-03T09:28:29;100568.22;;;14.00;44.36
76124;BME280;65173;48.066;20.976;2023-04-03T09:31:44;100565.56;;;13.29;38.18
76124;BME280;65173;48.066;20.976;2023-04-03T09:34:51;100574.34;;;14.42;38.23
76124;BME280;65173;48.066;20.976;2023-04-03T09:38:00;100563.31;;;14.22;36.31
76124;BME280;65173;48.066;20.976;2023-04-03T09:41:29;100576.19;;;13.46;38.59
76124;BME280;65173;48.066;20.976;2023-04-03T09:44:35;100569.84;;;12.83;40.88
76124;BME280;65173;48.066;20.976;2023-04-03T09:47:38;100583.44;;;13.66;42.69
76124;BME280;65173;48.066;20.976;2023-04-03T09:53:52;100577.19;;;12.39;40.15
76124;BME280;65173;48.066;20.976;2023-04-03T09:57:00;100566.88;;;12.76;41.24
76124;BME280;65173;48.066;20.976;2023-04-03T10:00:04;100576.63;;;13.77;38.13
76124;BME280;65173;48.066;20.976;2023-04-03T10:03:41;100572.22;;;13.94;38.44
76124;BME280;65173;48.066;20.976;2023-04-03T10:06:51;100561.25;;;14.40;39.13
76124;BME280;65173;48.066;20.976;2023-04-03T10:10:00;100574.50;;;13.83;37.70
76124;BME280;65173;48.066;20.976;2023-04-03T10:13:06;100569.56;;;13.94;37.89
76124;BME280;65173;48.066;20.976;2023-04-03T10:16:17;100582.25;;;13.34;39.39
76124;BME280;65173;48.066;20.976;2023-04-03T10:19:39;100586.78;;;12.96;39.19
76124;BME280;65173;48.066;20.976;2023-04-03T10:23:00;100588.59;;;13.12;40.72
76124;BME280;65173;48.066;20.976;2023-04-03T10:26:24;100587.16;;;12.77;38.27
76124;BME280;65173;48.066;20.976;2023-04-03T10:29:39;100610.09;;;12.95;39.39
76124;BME280;65173;48.066;20.976;2023-04-03T10:32:59;100603.41;;;12.72;39.24
76124;BME280;65173;48.066;20.976;2023-04-03T10:36:44;100598.50;;;12.82;38.19
76124;BME280;65173;48.066;20.976;2023-04-03T10:43:02;100600.50;;;12.13;39.87
76124;BME280;65173;48.066;20.976;2023-04-03T10:46:18;100601.06;;;12.62;39.56
76124;BME280;65173;48.066;20.976;2023-04-03T10:49:33;100591.59;;;13.49;38.22
76124;BME280;65173;48.066;20.976;2023-04-03T10:52:47;100593.09;;;13.38;38.91
76124;BME280;65173;48.066;20.976;2023-04-03T10:59:43;100605.22;;;11.99;42.32
76124;BME280;65173;48.066;20.976;2023-04-03T11:02:59;100595.91;;;11.88;42.13
76124;BME280;65173;48.066;20.976;2023-04-03T11:06:08;100597.00;;;13.02;39.06
76124;BME280;65173;48.066;20.976;2023-04-03T11:09:25;100581.63;;;12.35;40.08
76124;BME280;65173;48.066;20.976;2023-04-03T11:12:41;100595.25;;;11.73;43.43
76124;BME280;65173;48.066;20.976;2023-04-03T11:15:47;100589.56;;;11.01;43.56
76124;BME280;65173;48.066;20.976;2023-04-03T11:22:29;100603.47;;;9.23;48.84
76124;BME280;65173;48.066;20.976;2023-04-03T11:25:34;100591.47;;;9.25;48.07
76124;BME280;65173;48.066;20.976;2023-04-03T11:28:40;100596.91;;;10.42;46.76
76124;BME280;65173;48.066;20.976;2023-04-03T11:35:11;100613.06;;;10.01;46.27
76124;BME280;65173;48.066;20.976;2023-04-03T11:38:28;100619.81;;;10.96;44.05
76124;BME280;65173;48.066;20.976;2023-04-03T11:41:33;100622.22;;;10.75;42.90
76124;BME280;65173;48.066;20.976;2023-04-03T11:44:37;100618.72;;;11.28;42.73
76124;BME280;65173;48.066;20.976;2023-04-03T11:47:46;100628.78;;;11.40;43.85
76124;BME280;65173;48.066;20.976;2023-04-03T11:50:49;100622.97;;;12.12;42.49
76124;BME280;65173;48.066;20.976;2023-04-03T11:53:52;100624.69;;;11.91;40.97
76124;BME280;65173;48.066;20.976;2023-04-03T11:56:55;100610.28;;;11.43;41.49
76124;BME280;65173;48.066;20.976;2023-04-03T11:59:58;100610.19;;;11.74;45.89
76124;BME280;65173;48.066;20.976;2023-04-03T12:03:01;100619.22;;;11.39;42.37
76124;BME280;65173;48.066;20.976;2023-04-03T12:12:55;100612.13;;;11.34;42.87
76124;BME280;65173;48.066;20.976;2023-04-03T12:16:00;100618.31;;;10.51;44.38
76124;BME280;65173;48.066;20.976;2023-04-03T12:22:18;100618.13;;;11.00;46.51
76124;BME280;65173;48.066;20.976;2023-04-03T12:25:49;100604.25;;;11.95;41.24
76124;BME280;65173;48.066;20.976;2023-04-03T12:45:41;100601.66;;;10.76;43.68
76124;BME280;65173;48.066;20.976;2023-04-03T12:48:58;100604.53;;;11.19;44.49
76124;BME280;65173;48.066;20.976;2023-04-03T12:52:04;100596.19;;;10.50;45.36
76124;BME280;65173;48.066;20.976;2023-04-03T12:55:15;100580.88;;;10.87;44.49
76124;BME280;65173;48.066;20.976;2023-04-03T12:58:27;100589.75;;;10.20;44.83
76124;BME280;65173;48.066;20.976;2023-04-03T13:01:31;100593.06;;;10.12;45.73
76124;BME280;65173;48.066;20.976;2023-04-03T13:04:34;100590.38;;;9.90;44.70
76124;BME280;65173;48.066;20.976;2023-04-03T13:07:37;100581.13;;;10.23;44.28
76124;BME280;65173;48.066;20.976;2023-04-03T13:10:51;100572.13;;;10.64;44.67
76124;BME280;65173;48.066;20.976;2023-04-03T13:14:00;100573.22;;;9.96;45.50
76124;BME280;65173;48.066;20.976;2023-04-03T13:17:10;100582.03;;;10.05;45.89
76124;BME280;65173;48.066;20.976;2023-04-03T13:20:29;100554.22;;;9.25;45.42
76124;BME280;65173;48.066;20.976;2023-04-03T13:23:36;100551.16;;;9.32;45.74
76124;BME280;65173;48.066;20.976;2023-04-03T13:26:41;100578.75;;;9.22;49.59
76124;BME280;65173;48.066;20.976;2023-04-03T13:29:49;100557.56;;;9.17;45.43
76124;BME280;65173;48.066;20.976;2023-04-03T13:32:56;100551.25;;;8.58;46.13
76124;BME280;65173;48.066;20.976;2023-04-03T13:36:04;100560.47;;;8.61;45.61
76124;BME280;65173;48.066;20.976;2023-04-03T13:42:26;100564.38;;;9.10;46.28
76124;BME280;65173;48.066;20.976;2023-04-03T13:45:30;100563.69;;;8.44;47.64
76124;BME280;65173;48.066;20.976;2023-04-03T13:48:44;100572.75;;;9.03;48.00
76124;BME280;65173;48.066;20.976;2023-04-03T13:51:49;100581.66;;;8.33;47.70
76124;BME280;65173;48.066;20.976;2023-04-03T13:55:22;100568.44;;;8.28;48.67
76124;BME280;65173;48.066;20.976;2023-04-03T13:58:30;100578.19;;;8.52;47.59
76124;BME280;65173;48.066;20.976;2023-04-03T14:02:08;100573.13;;;8.18;47.49
76124;BME280;65173;48.066;20.976;2023-04-03T14:04:59;100577.19;;;8.29;46.98
76124;BME280;65173;48.066;20.976;2023-04-03T14:08:03;100570.69;;;7.65;47.82
76124;BME280;65173;48.066;20.976;2023-04-03T14:11:11;100602.66;;;7.55;47.92
76124;BME280;65173;48.066;20.976;2023-04-03T14:14:19;100597.31;;;7.79;48.16
76124;BME280;65173;48.066;20.976;2023-04-03T14:17:24;100595.28;;;7.52;49.03
76124;BME280;65173;48.066;20.976;2023-04-03T14:20:27;100593.44;;;7.28;49.03
76124;BME280;65173;48.066;20.976;2023-04-03T14:23:30;100602.66;;;7.55;49.32
76124;BME280;65173;48.066;20.976;2023-04-03T14:26:33;100604.41;;;7.64;48.79
76124;BME280;65173;48.066;20.976;2023-04-03T14:29:36;100608.56;;;6.99;49.79
76124;BME280;65173;48.066;20.976;2023-04-03T14:32:38;100605.16;;;6.99;50.01
76124;BME280;65173;48.066;20.976;2023-04-03T14:35:42;100618.38;;;6.75;49.17
76124;BME280;65173;48.066;20.976;2023-04-03T14:38:45;100619.16;;;6.75;50.42
76124;BME280;65173;48.066;20.976;2023-04-03T14:41:48;100632.97;;;6.67;49.67
76124;BME280;65173;48.066;20.976;2023-04-03T14:44:51;100648.19;;;6.56;49.71
76124;BME280;65173;48.066;20.976;2023-04-03T14:47:55;100639.34;;;6.32;50.27
76124;BME280;65173;48.066;20.976;2023-04-03T14:50:59;100632.88;;;6.48;51.28
76124;BME280;65173;48.066;20.976;2023-04-03T14:54:13;100631.75;;;6.20;51.18
76124;BME280;65173;48.066;20.976;2023-04-03T14:57:17;100636.41;;;6.34;52.11
76124;BME280;65173;48.066;20.976;2023-04-03T15:00:21;100648.41;;;6.26;51.55
76124;BME280;65173;48.066;20.976;2023-04-03T15:03:24;100648.09;;;5.73;50.65
76124;BME280;65173;48.066;20.976;2023-04-03T15:06:27;100654.28;;;5.48;51.23
76124;BME280;65173;48.066;20.976;2023-04-03T15:09:29;100640.09;;;5.19;51.65
76124;BME280;65173;48.066;20.976;2023-04-03T15:12:32;100644.81;;;5.37;53.05
76124;BME280;65173;48.066;20.976;2023-04-03T15:15:36;100663.03;;;5.44;52.77
76124;BME280;65173;48.066;20.976;2023-04-03T15:18:39;100665.44;;;5.35;52.35
76124;BME280;65173;48.066;20.976;2023-04-03T15:21:42;100670.19;;;5.23;52.88
76124;BME280;65173;48.066;20.976;2023-04-03T15:24:45;100668.41;;;4.93;52.23
76124;BME280;65173;48.066;20.976;2023-04-03T15:27:48;100680.28;;;4.85;53.42
76124;BME280;65173;48.066;20.976;2023-04-03T15:30:50;100668.16;;;4.74;52.47
76124;BME280;65173;48.066;20.976;2023-04-03T15:33:53;100661.78;;;4.55;51.25
76124;BME280;65173;48.066;20.976;2023-04-03T15:36:56;100669.72;;;4.45;51.61
76124;BME280;65173;48.066;20.976;2023-04-03T15:39:59;100671.03;;;4.58;51.80
76124;BME280;65173;48.066;20.976;2023-04-03T15:43:02;100683.47;;;4.62;50.81
76124;BME280;65173;48.066;20.976;2023-04-03T15:46:04;100679.22;;;4.41;51.62
76124;BME280;65173;48.066;20.976;2023-04-03T15:49:08;100666.53;;;4.28;51.99
76124;BME280;65173;48.066;20.976;2023-04-03T15:52:10;100675.50;;;4.37;52.62
76124;BME280;65173;48.066;20.976;2023-04-03T15:55:13;100677.09;;;4.43;52.59
76124;BME280;65173;48.066;20.976;2023-04-03T15:58:16;100665.47;;;4.39;52.23
76124;BME280;65173;48.066;20.976;2023-04-03T16:01:18;100677.88;;;4.28;51.39
76124;BME280;65173;48.066;20.976;2023-04-03T16:04:21;100675.75;;;4.35;52.41
76124;BME280;65173;48.066;20.976;2023-04-03T16:07:24;100670.69;;;4.13;51.59
76124;BME280;65173;48.066;20.976;2023-04-03T16:10:27;100660.69;;;4.21;51.93
76124;BME280;65173;48.066;20.976;2023-04-03T16:13:30;100671.50;;;4.09;52.33
76124;BME280;65173;48.066;20.976;2023-04-03T16:16:33;100677.50;;;3.99;52.63
76124;BME280;65173;48.066;20.976;2023-04-03T16:19:37;100684.34;;;3.90;53.48
76124;BME280;65173;48.066;20.976;2023-04-03T16:22:41;100682.19;;;3.82;52.98
76124;BME280;65173;48.066;20.976;2023-04-03T16:25:44;100686.41;;;3.73;53.64
76124;BME280;65173;48.066;20.976;2023-04-03T16:28:48;100699.56;;;3.73;54.06
76124;BME280;65173;48.066;20.976;2023-04-03T16:31:51;100708.56;;;3.82;55.26
76124;BME280;65173;48.066;20.976;2023-04-03T16:34:54;100716.44;;;3.77;55.16
76124;BME280;65173;48.066;20.976;2023-04-03T16:37:57;100703.91;;;3.47;53.21
76124;BME280;65173;48.066;20.976;2023-04-03T16:41:00;100707.78;;;3.34;54.27
76124;BME280;65173;48.066;20.976;2023-04-03T16:44:06;100714.31;;;3.27;55.37
76124;BME280;65173;48.066;20.976;2023-04-03T16:47:10;100710.84;;;3.16;54.67
76124;BME280;65173;48.066;20.976;2023-04-03T16:50:13;100721.56;;;3.04;54.30
76124;BME280;65173;48.066;20.976;2023-04-03T16:53:16;100729.66;;;2.98;54.89
76124;BME280;65173;48.066;20.976;2023-04-03T16:56:19;100724.56;;;2.86;55.70
76124;BME280;65173;48.066;20.976;2023-04-03T16:59:23;100727.09;;;2.76;56.10
76124;BME280;65173;48.066;20.976;2023-04-03T17:02:26;100740.72;;;2.68;56.13
76124;BME280;65173;48.066;20.976;2023-04-03T17:05:29;100740.13;;;2.61;56.58
76124;BME280;65173;48.066;20.976;2023-04-03T17:08:32;100740.91;;;2.61;56.79
76124;BME280;65173;48.066;20.976;2023-04-03T17:11:35;100747.16;;;2.55;57.29
76124;BME280;65173;48.066;20.976;2023-04-03T17:14:38;100768.19;;;2.55;57.39
76124;BME280;65173;48.066;20.976;2023-04-03T17:17:41;100761.81;;;2.46;57.17
76124;BME280;65173;48.066;20.976;2023-04-03T17:20:44;100762.84;;;2.45;57.81
76124;BME280;65173;48.066;20.976;2023-04-03T17:23:50;100767.78;;;2.41;56.37
76124;BME280;65173;48.066;20.976;2023-04-03T17:26:55;100774.91;;;2.41;56.26
76124;BME280;65173;48.066;20.976;2023-04-03T17:29:58;100777.41;;;2.31;57.03
76124;BME280;65173;48.066;20.976;2023-04-03T17:33:01;100782.63;;;2.26;56.98
76124;BME280;65173;48.066;20.976;2023-04-03T17:36:04;100778.94;;;2.27;58.02
76124;BME280;65173;48.066;20.976;2023-04-03T17:39:07;100788.13;;;2.24;58.07
76124;BME280;65173;48.066;20.976;2023-04-03T17:42:10;100782.31;;;2.22;58.35
76124;BME280;65173;48.066;20.976;2023-04-03T17:45:13;100795.34;;;2.12;59.45
76124;BME280;65173;48.066;20.976;2023-04-03T17:48:16;100789.75;;;2.08;59.15
76124;BME280;65173;48.066;20.976;2023-04-03T17:51:20;100795.91;;;1.97;59.86
76124;BME280;65173;48.066;20.976;2023-04-03T17:54:24;100812.25;;;1.99;60.65